Thisted, Denmark
Current Conditions -  °F | °C
As of 4:20 AM on Saturday 29 Nov 2014 (Local Time) from EKYT Reporting Station
Overcast Overcast  
Wind Chill: 33°   Ceiling: 2500
Heat Index: 41°   Visibility: 6mi
Dew Point: 32°   Wind: 14mph
Humidity: 70%   Direction: 100°E
Pressure: 30.3"   Gusts: NA
Location:  56.95°N, 8.69°E
Report Text: EKYT 290320Z 10012KT 9999 OVC025 05/00 Q1026
Loading
Personal Weather Stations






























Interactive Weather Map New forecast layout! Learn more

10-Day Weather Forecast

Advertisements
Track Severe Weather on mobile